Enfield, Illinois
Current Conditions -  °F | °C
As of 4:35 AM on Friday 21 Nov 2014 (Local Time) from KCUL Reporting Station
Clear Clear  
Wind Chill: 19°   Ceiling: Unl
Heat Index: 19°   Visibility: 10mi
Dew Point: 17°   Wind: 0mph
Humidity: 95%   Direction: NA
Pressure: 30.42"   Gusts: NA
Location:  38.1°N, 88.34°W
Report Text: KCUL 211035Z AUTO 00000KT 10SM CLR M07/M08 A3042 RMK AO2 T10741081
Loading
Personal Weather Stations






























Interactive Weather Map New forecast layout! Learn more

10-Day Weather Forecast

Advertisements
Track Severe Weather on mobile